sensor_id;sensor_type;location;lat;lon;timestamp;temperature;humidity
13848;DHT22;6994;49.752;6.094;2023-02-10T00:00:23;-3.00;99.90
13848;DHT22;6994;49.752;6.094;2023-02-10T00:02:50;-3.10;99.90
13848;DHT22;6994;49.752;6.094;2023-02-10T00:05:17;-3.00;99.90
13848;DHT22;6994;49.752;6.094;2023-02-10T00:07:44;-2.90;99.90
13848;DHT22;6994;49.752;6.094;2023-02-10T00:10:12;-2.80;99.90
13848;DHT22;6994;49.752;6.094;2023-02-10T00:12:40;-2.80;99.90
13848;DHT22;6994;49.752;6.094;2023-02-10T00:15:08;-2.80;99.90
13848;DHT22;6994;49.752;6.094;2023-02-10T00:17:36;-2.60;99.90
13848;DHT22;6994;49.752;6.094;2023-02-10T00:20:04;-2.50;99.90
13848;DHT22;6994;49.752;6.094;2023-02-10T00:22:31;-2.50;99.90
13848;DHT22;6994;49.752;6.094;2023-02-10T00:24:58;-2.40;99.90
13848;DHT22;6994;49.752;6.094;2023-02-10T00:27:25;-2.30;99.90
13848;DHT22;6994;49.752;6.094;2023-02-10T00:29:52;-2.00;99.90
13848;DHT22;6994;49.752;6.094;2023-02-10T00:32:20;-1.80;99.90
13848;DHT22;6994;49.752;6.094;2023-02-10T00:34:47;-1.70;99.90
13848;DHT22;6994;49.752;6.094;2023-02-10T00:37:14;-1.60;99.90
13848;DHT22;6994;49.752;6.094;2023-02-10T00:39:41;-1.50;99.90
13848;DHT22;6994;49.752;6.094;2023-02-10T00:42:09;-1.50;99.90
13848;DHT22;6994;49.752;6.094;2023-02-10T00:44:36;-1.40;99.90
13848;DHT22;6994;49.752;6.094;2023-02-10T00:47:03;-1.30;99.90
13848;DHT22;6994;49.752;6.094;2023-02-10T00:49:30;-1.30;99.90
13848;DHT22;6994;49.752;6.094;2023-02-10T00:51:57;-1.30;99.90
13848;DHT22;6994;49.752;6.094;2023-02-10T00:54:25;-1.00;99.90
13848;DHT22;6994;49.752;6.094;2023-02-10T00:56:52;-0.90;99.90
13848;DHT22;6994;49.752;6.094;2023-02-10T00:59:20;-0.80;99.90
13848;DHT22;6994;49.752;6.094;2023-02-10T01:01:47;-0.90;99.90
13848;DHT22;6994;49.752;6.094;2023-02-10T01:04:14;-0.90;99.90
13848;DHT22;6994;49.752;6.094;2023-02-10T01:06:41;-0.90;99.90
13848;DHT22;6994;49.752;6.094;2023-02-10T01:09:09;-0.90;99.90
13848;DHT22;6994;49.752;6.094;2023-02-10T01:11:36;-0.90;99.90
13848;DHT22;6994;49.752;6.094;2023-02-10T01:14:03;-0.90;99.90
13848;DHT22;6994;49.752;6.094;2023-02-10T01:16:30;-0.90;99.90
13848;DHT22;6994;49.752;6.094;2023-02-10T01:18:58;-0.80;99.90
13848;DHT22;6994;49.752;6.094;2023-02-10T01:21:25;-0.80;99.90
13848;DHT22;6994;49.752;6.094;2023-02-10T01:23:52;-0.80;99.90
13848;DHT22;6994;49.752;6.094;2023-02-10T01:26:19;-0.70;99.90
13848;DHT22;6994;49.752;6.094;2023-02-10T01:28:46;-0.70;99.90
13848;DHT22;6994;49.752;6.094;2023-02-10T01:31:14;-0.60;99.90
13848;DHT22;6994;49.752;6.094;2023-02-10T01:33:41;-0.40;99.90
13848;DHT22;6994;49.752;6.094;2023-02-10T01:36:14;-0.20;99.90
13848;DHT22;6994;49.752;6.094;2023-02-10T01:38:40;-0.20;99.90
13848;DHT22;6994;49.752;6.094;2023-02-10T01:41:07;-0.20;99.90
13848;DHT22;6994;49.752;6.094;2023-02-10T01:46:20;0.10;99.90
13848;DHT22;6994;49.752;6.094;2023-02-10T01:48:47;0.00;99.90
13848;DHT22;6994;49.752;6.094;2023-02-10T01:51:14;0.00;99.90
13848;DHT22;6994;49.752;6.094;2023-02-10T01:53:42;-0.10;99.90
13848;DHT22;6994;49.752;6.094;2023-02-10T01:56:09;-0.10;99.90
13848;DHT22;6994;49.752;6.094;2023-02-10T01:58:36;-0.20;99.90
13848;DHT22;6994;49.752;6.094;2023-02-10T02:01:03;-0.20;99.90
13848;DHT22;6994;49.752;6.094;2023-02-10T02:03:31;-0.20;99.90
13848;DHT22;6994;49.752;6.094;2023-02-10T02:05:58;-0.10;99.90
13848;DHT22;6994;49.752;6.094;2023-02-10T02:08:26;0.30;99.90
13848;DHT22;6994;49.752;6.094;2023-02-10T02:13:49;0.10;99.90
13848;DHT22;6994;49.752;6.094;2023-02-10T02:32:42;-0.40;99.90
13848;DHT22;6994;49.752;6.094;2023-02-10T02:35:14;-0.40;99.90
13848;DHT22;6994;49.752;6.094;2023-02-10T02:37:45;-0.40;99.90
13848;DHT22;6994;49.752;6.094;2023-02-10T02:40:13;-0.20;99.90
13848;DHT22;6994;49.752;6.094;2023-02-10T02:42:39;-0.20;99.90
13848;DHT22;6994;49.752;6.094;2023-02-10T02:45:19;-0.20;99.90
13848;DHT22;6994;49.752;6.094;2023-02-10T02:50:31;-0.20;99.90
13848;DHT22;6994;49.752;6.094;2023-02-10T02:53:17;-0.30;99.90
13848;DHT22;6994;49.752;6.094;2023-02-10T02:58:44;-0.30;99.90
13848;DHT22;6994;49.752;6.094;2023-02-10T03:01:14;-0.10;99.90
13848;DHT22;6994;49.752;6.094;2023-02-10T03:03:35;0.00;99.90
13848;DHT22;6994;49.752;6.094;2023-02-10T03:06:02;0.00;99.90
13848;DHT22;6994;49.752;6.094;2023-02-10T03:08:31;0.00;99.90
13848;DHT22;6994;49.752;6.094;2023-02-10T03:10:58;0.00;99.90
13848;DHT22;6994;49.752;6.094;2023-02-10T03:13:26;-0.10;99.90
13848;DHT22;6994;49.752;6.094;2023-02-10T03:15:53;0.00;99.90
13848;DHT22;6994;49.752;6.094;2023-02-10T03:18:21;-0.10;99.90
13848;DHT22;6994;49.752;6.094;2023-02-10T03:20:48;-0.10;99.90
13848;DHT22;6994;49.752;6.094;2023-02-10T03:23:15;-0.10;99.90
13848;DHT22;6994;49.752;6.094;2023-02-10T03:25:45;-0.10;99.90
13848;DHT22;6994;49.752;6.094;2023-02-10T03:28:12;-0.10;99.90
13848;DHT22;6994;49.752;6.094;2023-02-10T03:30:39;-0.20;99.90
13848;DHT22;6994;49.752;6.094;2023-02-10T03:33:06;-0.20;99.90
13848;DHT22;6994;49.752;6.094;2023-02-10T03:35:36;-0.20;99.90
13848;DHT22;6994;49.752;6.094;2023-02-10T03:38:03;-0.20;99.90
13848;DHT22;6994;49.752;6.094;2023-02-10T03:40:31;0.00;99.90
13848;DHT22;6994;49.752;6.094;2023-02-10T03:42:58;0.10;99.90
13848;DHT22;6994;49.752;6.094;2023-02-10T03:45:25;0.10;99.90
13848;DHT22;6994;49.752;6.094;2023-02-10T03:47:52;0.10;99.90
13848;DHT22;6994;49.752;6.094;2023-02-10T03:50:19;0.10;99.90
13848;DHT22;6994;49.752;6.094;2023-02-10T03:52:47;0.10;99.90
13848;DHT22;6994;49.752;6.094;2023-02-10T03:55:15;0.10;99.90
13848;DHT22;6994;49.752;6.094;2023-02-10T03:57:43;0.10;99.90
13848;DHT22;6994;49.752;6.094;2023-02-10T04:00:12;0.00;99.90
13848;DHT22;6994;49.752;6.094;2023-02-10T04:02:39;0.00;99.90
13848;DHT22;6994;49.752;6.094;2023-02-10T04:05:07;0.00;99.90
13848;DHT22;6994;49.752;6.094;2023-02-10T04:07:34;0.00;99.90
13848;DHT22;6994;49.752;6.094;2023-02-10T04:10:01;0.00;99.90
13848;DHT22;6994;49.752;6.094;2023-02-10T04:12:28;0.00;99.90
13848;DHT22;6994;49.752;6.094;2023-02-10T04:14:55;0.00;99.90
13848;DHT22;6994;49.752;6.094;2023-02-10T04:17:23;0.00;99.90
13848;DHT22;6994;49.752;6.094;2023-02-10T04:19:50;0.00;99.90
13848;DHT22;6994;49.752;6.094;2023-02-10T04:22:17;0.30;99.90
13848;DHT22;6994;49.752;6.094;2023-02-10T04:24:45;0.40;99.90
13848;DHT22;6994;49.752;6.094;2023-02-10T04:27:13;0.30;99.90
13848;DHT22;6994;49.752;6.094;2023-02-10T04:29:40;0.30;99.90
13848;DHT22;6994;49.752;6.094;2023-02-10T04:32:07;0.30;99.90
13848;DHT22;6994;49.752;6.094;2023-02-10T04:34:35;0.30;99.90
13848;DHT22;6994;49.752;6.094;2023-02-10T04:37:02;0.50;99.90
13848;DHT22;6994;49.752;6.094;2023-02-10T04:39:29;0.60;99.90
13848;DHT22;6994;49.752;6.094;2023-02-10T04:41:56;0.80;99.90
13848;DHT22;6994;49.752;6.094;2023-02-10T04:44:23;0.90;99.90
13848;DHT22;6994;49.752;6.094;2023-02-10T04:46:51;0.70;99.90
13848;DHT22;6994;49.752;6.094;2023-02-10T04:49:19;0.70;99.90
13848;DHT22;6994;49.752;6.094;2023-02-10T04:51:47;0.60;99.90
13848;DHT22;6994;49.752;6.094;2023-02-10T04:54:15;0.60;99.90
13848;DHT22;6994;49.752;6.094;2023-02-10T04:56:42;0.60;99.90
13848;DHT22;6994;49.752;6.094;2023-02-10T04:59:09;0.50;99.90
13848;DHT22;6994;49.752;6.094;2023-02-10T05:01:36;0.50;99.90
13848;DHT22;6994;49.752;6.094;2023-02-10T05:04:03;0.50;99.90
13848;DHT22;6994;49.752;6.094;2023-02-10T05:06:31;0.70;99.90
13848;DHT22;6994;49.752;6.094;2023-02-10T05:08:58;0.80;99.90
13848;DHT22;6994;49.752;6.094;2023-02-10T05:11:26;0.70;99.90
13848;DHT22;6994;49.752;6.094;2023-02-10T05:13:54;0.60;99.90
13848;DHT22;6994;49.752;6.094;2023-02-10T05:16:22;0.60;99.90
13848;DHT22;6994;49.752;6.094;2023-02-10T05:18:49;0.60;99.90
13848;DHT22;6994;49.752;6.094;2023-02-10T05:21:16;0.50;99.90
13848;DHT22;6994;49.752;6.094;2023-02-10T05:23:43;0.50;99.90
13848;DHT22;6994;49.752;6.094;2023-02-10T05:26:11;0.50;99.90
13848;DHT22;6994;49.752;6.094;2023-02-10T05:28:38;0.40;99.90
13848;DHT22;6994;49.752;6.094;2023-02-10T05:31:05;0.40;99.90
13848;DHT22;6994;49.752;6.094;2023-02-10T05:33:32;0.40;99.90
13848;DHT22;6994;49.752;6.094;2023-02-10T05:36:00;0.50;99.90
13848;DHT22;6994;49.752;6.094;2023-02-10T05:38:27;0.40;99.90
13848;DHT22;6994;49.752;6.094;2023-02-10T05:40:55;0.50;99.90
13848;DHT22;6994;49.752;6.094;2023-02-10T05:43:22;0.50;99.90
13848;DHT22;6994;49.752;6.094;2023-02-10T05:45:49;0.40;99.90
13848;DHT22;6994;49.752;6.094;2023-02-10T05:48:16;0.50;99.90
13848;DHT22;6994;49.752;6.094;2023-02-10T05:50:43;0.70;99.90
13848;DHT22;6994;49.752;6.094;2023-02-10T05:53:11;0.70;99.90
13848;DHT22;6994;49.752;6.094;2023-02-10T05:55:39;0.70;99.90
13848;DHT22;6994;49.752;6.094;2023-02-10T05:58:06;0.70;99.90
13848;DHT22;6994;49.752;6.094;2023-02-10T06:00:33;0.60;99.90
13848;DHT22;6994;49.752;6.094;2023-02-10T06:03:01;0.60;99.90
13848;DHT22;6994;49.752;6.094;2023-02-10T06:05:28;0.50;99.90
13848;DHT22;6994;49.752;6.094;2023-02-10T06:07:55;0.50;99.90
13848;DHT22;6994;49.752;6.094;2023-02-10T06:10:23;0.50;99.90
13848;DHT22;6994;49.752;6.094;2023-02-10T06:12:50;0.40;99.90
13848;DHT22;6994;49.752;6.094;2023-02-10T06:15:17;0.40;99.90
13848;DHT22;6994;49.752;6.094;2023-02-10T06:17:44;0.30;99.90
13848;DHT22;6994;49.752;6.094;2023-02-10T06:20:11;0.30;99.90
13848;DHT22;6994;49.752;6.094;2023-02-10T06:22:39;0.20;99.90
13848;DHT22;6994;49.752;6.094;2023-02-10T06:25:07;0.20;99.90
13848;DHT22;6994;49.752;6.094;2023-02-10T06:27:34;0.20;99.90
13848;DHT22;6994;49.752;6.094;2023-02-10T06:30:01;0.10;99.90
13848;DHT22;6994;49.752;6.094;2023-02-10T06:32:28;0.10;99.90
13848;DHT22;6994;49.752;6.094;2023-02-10T06:34:55;0.00;99.90
13848;DHT22;6994;49.752;6.094;2023-02-10T06:37:23;0.20;99.90
13848;DHT22;6994;49.752;6.094;2023-02-10T06:39:50;0.30;99.90
13848;DHT22;6994;49.752;6.094;2023-02-10T06:42:18;0.20;99.90
13848;DHT22;6994;49.752;6.094;2023-02-10T06:44:46;0.20;99.90
13848;DHT22;6994;49.752;6.094;2023-02-10T06:47:13;0.10;99.90
13848;DHT22;6994;49.752;6.094;2023-02-10T06:49:40;0.10;99.90
13848;DHT22;6994;49.752;6.094;2023-02-10T06:52:07;0.20;99.90
13848;DHT22;6994;49.752;6.094;2023-02-10T06:54:35;0.40;99.90
13848;DHT22;6994;49.752;6.094;2023-02-10T06:57:02;0.60;99.90
13848;DHT22;6994;49.752;6.094;2023-02-10T06:59:29;0.60;99.90
13848;DHT22;6994;49.752;6.094;2023-02-10T07:01:56;0.60;99.90
13848;DHT22;6994;49.752;6.094;2023-02-10T07:04:23;0.70;99.90
13848;DHT22;6994;49.752;6.094;2023-02-10T07:06:51;0.70;99.90
13848;DHT22;6994;49.752;6.094;2023-02-10T07:09:19;0.70;99.90
13848;DHT22;6994;49.752;6.094;2023-02-10T07:11:47;0.70;99.90
13848;DHT22;6994;49.752;6.094;2023-02-10T07:14:14;0.70;99.90
13848;DHT22;6994;49.752;6.094;2023-02-10T07:16:41;0.80;99.90
13848;DHT22;6994;49.752;6.094;2023-02-10T07:19:08;0.80;99.90
13848;DHT22;6994;49.752;6.094;2023-02-10T07:21:35;1.10;99.90
13848;DHT22;6994;49.752;6.094;2023-02-10T07:24:03;1.20;99.90
13848;DHT22;6994;49.752;6.094;2023-02-10T07:26:30;1.50;99.90
13848;DHT22;6994;49.752;6.094;2023-02-10T07:28:57;1.50;99.90
13848;DHT22;6994;49.752;6.094;2023-02-10T07:31:24;1.50;99.90
13848;DHT22;6994;49.752;6.094;2023-02-10T07:33:51;1.50;99.90
13848;DHT22;6994;49.752;6.094;2023-02-10T07:36:19;1.40;99.90
13848;DHT22;6994;49.752;6.094;2023-02-10T07:38:46;1.40;99.90
13848;DHT22;6994;49.752;6.094;2023-02-10T07:41:13;1.40;99.90
13848;DHT22;6994;49.752;6.094;2023-02-10T07:43:40;1.40;99.90
13848;DHT22;6994;49.752;6.094;2023-02-10T07:46:07;1.40;99.90
13848;DHT22;6994;49.752;6.094;2023-02-10T07:48:35;1.60;99.90
13848;DHT22;6994;49.752;6.094;2023-02-10T07:51:02;1.70;99.90
13848;DHT22;6994;49.752;6.094;2023-02-10T07:53:30;1.80;99.90
13848;DHT22;6994;49.752;6.094;2023-02-10T07:55:58;1.70;99.90
13848;DHT22;6994;49.752;6.094;2023-02-10T07:58:26;1.80;99.90
13848;DHT22;6994;49.752;6.094;2023-02-10T08:00:53;1.70;99.90
13848;DHT22;6994;49.752;6.094;2023-02-10T08:03:20;1.80;99.90
13848;DHT22;6994;49.752;6.094;2023-02-10T08:05:47;1.80;99.90
13848;DHT22;6994;49.752;6.094;2023-02-10T08:08:15;1.90;99.90
13848;DHT22;6994;49.752;6.094;2023-02-10T08:10:42;1.90;99.90
13848;DHT22;6994;49.752;6.094;2023-02-10T08:13:09;2.20;99.90
13848;DHT22;6994;49.752;6.094;2023-02-10T08:15:36;2.30;99.90
13848;DHT22;6994;49.752;6.094;2023-02-10T08:18:04;2.40;99.90
13848;DHT22;6994;49.752;6.094;2023-02-10T08:20:32;2.40;99.90
13848;DHT22;6994;49.752;6.094;2023-02-10T08:23:00;2.40;99.90
13848;DHT22;6994;49.752;6.094;2023-02-10T08:25:27;2.40;99.90
13848;DHT22;6994;49.752;6.094;2023-02-10T08:27:55;2.50;99.90
13848;DHT22;6994;49.752;6.094;2023-02-10T08:30:22;2.50;99.90
13848;DHT22;6994;49.752;6.094;2023-02-10T08:32:49;2.80;99.90
13848;DHT22;6994;49.752;6.094;2023-02-10T08:35:16;2.90;99.90
13848;DHT22;6994;49.752;6.094;2023-02-10T08:37:43;3.00;99.90
13848;DHT22;6994;49.752;6.094;2023-02-10T08:40:11;3.10;99.90
13848;DHT22;6994;49.752;6.094;2023-02-10T08:42:39;3.10;99.90
13848;DHT22;6994;49.752;6.094;2023-02-10T08:45:07;3.20;99.90
13848;DHT22;6994;49.752;6.094;2023-02-10T08:47:35;3.50;99.90
13848;DHT22;6994;49.752;6.094;2023-02-10T08:50:02;3.50;99.90
13848;DHT22;6994;49.752;6.094;2023-02-10T08:52:29;3.60;99.90
13848;DHT22;6994;49.752;6.094;2023-02-10T08:54:56;3.70;99.90
13848;DHT22;6994;49.752;6.094;2023-02-10T08:57:24;3.70;99.90
13848;DHT22;6994;49.752;6.094;2023-02-10T08:59:51;4.00;99.90
13848;DHT22;6994;49.752;6.094;2023-02-10T09:02:18;4.10;99.90
13848;DHT22;6994;49.752;6.094;2023-02-10T09:04:45;4.10;99.90
13848;DHT22;6994;49.752;6.094;2023-02-10T09:07:12;4.10;99.90
13848;DHT22;6994;49.752;6.094;2023-02-10T09:09:40;4.20;99.90
13848;DHT22;6994;49.752;6.094;2023-02-10T09:12:07;4.20;99.90
13848;DHT22;6994;49.752;6.094;2023-02-10T09:14:34;4.30;99.90
13848;DHT22;6994;49.752;6.094;2023-02-10T09:17:01;4.30;99.90
13848;DHT22;6994;49.752;6.094;2023-02-10T09:21:17;4.50;99.90
13848;DHT22;6994;49.752;6.094;2023-02-10T09:23:44;4.60;99.90
13848;DHT22;6994;49.752;6.094;2023-02-10T09:26:11;4.60;99.90
13848;DHT22;6994;49.752;6.094;2023-02-10T09:28:38;4.60;99.90
13848;DHT22;6994;49.752;6.094;2023-02-10T09:31:06;4.50;99.90
13848;DHT22;6994;49.752;6.094;2023-02-10T09:33:33;4.50;99.90
13848;DHT22;6994;49.752;6.094;2023-02-10T09:36:04;4.50;99.90
13848;DHT22;6994;49.752;6.094;2023-02-10T09:38:30;4.50;99.90
13848;DHT22;6994;49.752;6.094;2023-02-10T09:41:19;4.60;99.90
13848;DHT22;6994;49.752;6.094;2023-02-10T09:44:36;4.60;99.90
13848;DHT22;6994;49.752;6.094;2023-02-10T09:46:46;4.60;99.90
13848;DHT22;6994;49.752;6.094;2023-02-10T09:52:22;5.00;99.90
13848;DHT22;6994;49.752;6.094;2023-02-10T09:54:45;5.20;99.90
13848;DHT22;6994;49.752;6.094;2023-02-10T09:57:16;5.30;99.90
13848;DHT22;6994;49.752;6.094;2023-02-10T09:59:42;5.80;99.90
13848;DHT22;6994;49.752;6.094;2023-02-10T10:02:14;5.90;99.90
13848;DHT22;6994;49.752;6.094;2023-02-10T10:04:39;5.90;99.90
13848;DHT22;6994;49.752;6.094;2023-02-10T10:09:44;6.10;99.90
13848;DHT22;6994;49.752;6.094;2023-02-10T10:12:18;6.10;99.90
13848;DHT22;6994;49.752;6.094;2023-02-10T10:14:40;6.20;99.90
13848;DHT22;6994;49.752;6.094;2023-02-10T10:33:37;7.10;99.90
13848;DHT22;6994;49.752;6.094;2023-02-10T10:36:03;7.20;99.90
13848;DHT22;6994;49.752;6.094;2023-02-10T10:38:32;7.40;99.90
13848;DHT22;6994;49.752;6.094;2023-02-10T10:40:59;7.50;99.90
13848;DHT22;6994;49.752;6.094;2023-02-10T10:43:27;7.50;99.90
13848;DHT22;6994;49.752;6.094;2023-02-10T10:45:59;7.60;99.90
13848;DHT22;6994;49.752;6.094;2023-02-10T10:48:25;7.50;99.90
13848;DHT22;6994;49.752;6.094;2023-02-10T10:50:55;7.60;99.90
13848;DHT22;6994;49.752;6.094;2023-02-10T10:55:52;7.50;99.90
13848;DHT22;6994;49.752;6.094;2023-02-10T10:58:31;7.40;99.90
13848;DHT22;6994;49.752;6.094;2023-02-10T11:00:58;7.10;99.90
13848;DHT22;6994;49.752;6.094;2023-02-10T11:03:26;7.00;99.90
13848;DHT22;6994;49.752;6.094;2023-02-10T11:06:04;7.00;99.90
13848;DHT22;6994;49.752;6.094;2023-02-10T11:08:30;7.00;99.90
13848;DHT22;6994;49.752;6.094;2023-02-10T11:10:57;7.00;99.90
13848;DHT22;6994;49.752;6.094;2023-02-10T11:13:24;6.90;99.90
13848;DHT22;6994;49.752;6.094;2023-02-10T11:15:57;6.80;99.90
13848;DHT22;6994;49.752;6.094;2023-02-10T11:18:20;6.80;99.90
13848;DHT22;6994;49.752;6.094;2023-02-10T11:21:05;6.80;99.90
13848;DHT22;6994;49.752;6.094;2023-02-10T11:23:28;6.80;99.90
13848;DHT22;6994;49.752;6.094;2023-02-10T11:25:58;6.80;99.90
13848;DHT22;6994;49.752;6.094;2023-02-10T11:28:24;6.90;99.90
13848;DHT22;6994;49.752;6.094;2023-02-10T11:30:54;6.90;99.90
13848;DHT22;6994;49.752;6.094;2023-02-10T11:33:21;7.40;99.90
13848;DHT22;6994;49.752;6.094;2023-02-10T11:35:48;7.40;99.90
13848;DHT22;6994;49.752;6.094;2023-02-10T11:38:19;7.40;99.90
13848;DHT22;6994;49.752;6.094;2023-02-10T11:40:52;7.40;99.90
13848;DHT22;6994;49.752;6.094;2023-02-10T11:43:18;7.50;99.90
13848;DHT22;6994;49.752;6.094;2023-02-10T11:45:59;7.50;99.90
13848;DHT22;6994;49.752;6.094;2023-02-10T11:48:22;7.50;99.90
13848;DHT22;6994;49.752;6.094;2023-02-10T11:50:49;7.40;99.90
13848;DHT22;6994;49.752;6.094;2023-02-10T11:53:23;7.40;99.90
13848;DHT22;6994;49.752;6.094;2023-02-10T11:56:12;7.70;99.90
13848;DHT22;6994;49.752;6.094;2023-02-10T11:58:54;7.80;99.90
13848;DHT22;6994;49.752;6.094;2023-02-10T12:10:27;8.00;99.90
13848;DHT22;6994;49.752;6.094;2023-02-10T12:13:02;8.00;99.90
13848;DHT22;6994;49.752;6.094;2023-02-10T12:15:49;8.00;99.90
13848;DHT22;6994;49.752;6.094;2023-02-10T12:21:41;8.10;99.90
13848;DHT22;6994;49.752;6.094;2023-02-10T12:27:03;8.30;99.90
13848;DHT22;6994;49.752;6.094;2023-02-10T12:40:49;8.80;99.90
13848;DHT22;6994;49.752;6.094;2023-02-10T12:43:38;8.90;99.90
13848;DHT22;6994;49.752;6.094;2023-02-10T12:51:43;9.10;99.90
13848;DHT22;6994;49.752;6.094;2023-02-10T12:54:39;9.50;99.90
13848;DHT22;6994;49.752;6.094;2023-02-10T12:57:16;9.50;99.90
13848;DHT22;6994;49.752;6.094;2023-02-10T12:59:56;9.50;99.90
13848;DHT22;6994;49.752;6.094;2023-02-10T13:02:16;9.40;99.90
13848;DHT22;6994;49.752;6.094;2023-02-10T13:04:41;9.70;99.90
13848;DHT22;6994;49.752;6.094;2023-02-10T13:12:21;9.50;99.90
13848;DHT22;6994;49.752;6.094;2023-02-10T13:14:48;9.60;99.90
13848;DHT22;6994;49.752;6.094;2023-02-10T13:17:15;9.60;99.90
13848;DHT22;6994;49.752;6.094;2023-02-10T13:19:49;9.80;99.90
13848;DHT22;6994;49.752;6.094;2023-02-10T13:25:06;9.60;99.90
13848;DHT22;6994;49.752;6.094;2023-02-10T13:27:50;9.60;99.90
13848;DHT22;6994;49.752;6.094;2023-02-10T13:30:40;9.60;99.90
13848;DHT22;6994;49.752;6.094;2023-02-10T13:35:46;9.60;99.90
13848;DHT22;6994;49.752;6.094;2023-02-10T13:38:14;10.00;99.90
13848;DHT22;6994;49.752;6.094;2023-02-10T13:40:53;10.10;99.90
13848;DHT22;6994;49.752;6.094;2023-02-10T13:43:31;10.00;99.90
13848;DHT22;6994;49.752;6.094;2023-02-10T13:45:58;10.00;99.90
13848;DHT22;6994;49.752;6.094;2023-02-10T13:48:27;9.90;99.90
13848;DHT22;6994;49.752;6.094;2023-02-10T13:51:00;9.90;99.90
13848;DHT22;6994;49.752;6.094;2023-02-10T13:58:57;9.90;99.90
13848;DHT22;6994;49.752;6.094;2023-02-10T14:04:00;10.00;99.90
13848;DHT22;6994;49.752;6.094;2023-02-10T14:06:40;9.80;99.90
13848;DHT22;6994;49.752;6.094;2023-02-10T14:09:17;10.00;99.90
13848;DHT22;6994;49.752;6.094;2023-02-10T14:11:42;9.90;99.90
13848;DHT22;6994;49.752;6.094;2023-02-10T14:14:17;9.70;99.90
13848;DHT22;6994;49.752;6.094;2023-02-10T14:16:43;9.90;99.90
13848;DHT22;6994;49.752;6.094;2023-02-10T14:19:28;10.20;99.90
13848;DHT22;6994;49.752;6.094;2023-02-10T14:21:55;10.00;99.90
13848;DHT22;6994;49.752;6.094;2023-02-10T14:24:22;9.80;99.90
13848;DHT22;6994;49.752;6.094;2023-02-10T14:26:49;9.80;99.90
13848;DHT22;6994;49.752;6.094;2023-02-10T14:29:17;10.20;99.90
13848;DHT22;6994;49.752;6.094;2023-02-10T14:31:45;10.30;99.90
13848;DHT22;6994;49.752;6.094;2023-02-10T14:34:33;10.30;99.90
13848;DHT22;6994;49.752;6.094;2023-02-10T14:36:58;10.30;99.90
13848;DHT22;6994;49.752;6.094;2023-02-10T14:39:26;10.40;99.90
13848;DHT22;6994;49.752;6.094;2023-02-10T14:41:52;10.40;99.90
13848;DHT22;6994;49.752;6.094;2023-02-10T14:46:55;10.60;99.90
13848;DHT22;6994;49.752;6.094;2023-02-10T14:49:22;11.20;99.90
13848;DHT22;6994;49.752;6.094;2023-02-10T14:51:49;11.20;99.90
13848;DHT22;6994;49.752;6.094;2023-02-10T14:54:23;11.20;99.90
13848;DHT22;6994;49.752;6.094;2023-02-10T14:56:53;11.00;99.90
13848;DHT22;6994;49.752;6.094;2023-02-10T14:59:22;10.70;99.90
13848;DHT22;6994;49.752;6.094;2023-02-10T15:01:48;10.60;99.90
13848;DHT22;6994;49.752;6.094;2023-02-10T15:04:15;10.50;99.90
13848;DHT22;6994;49.752;6.094;2023-02-10T15:06:43;10.50;99.90
13848;DHT22;6994;49.752;6.094;2023-02-10T15:09:19;10.40;99.90
13848;DHT22;6994;49.752;6.094;2023-02-10T15:11:47;10.40;99.90
13848;DHT22;6994;49.752;6.094;2023-02-10T15:14:35;10.30;99.90
13848;DHT22;6994;49.752;6.094;2023-02-10T15:17:03;10.10;99.90
13848;DHT22;6994;49.752;6.094;2023-02-10T15:19:29;10.10;99.90
13848;DHT22;6994;49.752;6.094;2023-02-10T15:21:56;10.10;99.90
13848;DHT22;6994;49.752;6.094;2023-02-10T15:24:32;10.10;99.90
13848;DHT22;6994;49.752;6.094;2023-02-10T15:27:15;10.30;99.90
13848;DHT22;6994;49.752;6.094;2023-02-10T15:29:42;10.20;99.90
13848;DHT22;6994;49.752;6.094;2023-02-10T15:32:19;9.90;99.90
13848;DHT22;6994;49.752;6.094;2023-02-10T15:34:45;9.70;99.90
13848;DHT22;6994;49.752;6.094;2023-02-10T15:37:23;9.50;99.90
13848;DHT22;6994;49.752;6.094;2023-02-10T15:39:55;9.30;99.90
13848;DHT22;6994;49.752;6.094;2023-02-10T15:42:22;9.10;99.90
13848;DHT22;6994;49.752;6.094;2023-02-10T15:44:59;9.20;99.90
13848;DHT22;6994;49.752;6.094;2023-02-10T15:49:43;8.90;99.90
13848;DHT22;6994;49.752;6.094;2023-02-10T15:52:12;8.70;99.90
13848;DHT22;6994;49.752;6.094;2023-02-10T15:54:37;8.80;99.90
13848;DHT22;6994;49.752;6.094;2023-02-10T15:57:05;8.80;99.90
13848;DHT22;6994;49.752;6.094;2023-02-10T15:59:33;8.40;99.90
13848;DHT22;6994;49.752;6.094;2023-02-10T16:02:01;8.30;99.90
13848;DHT22;6994;49.752;6.094;2023-02-10T16:04:29;8.10;99.90
13848;DHT22;6994;49.752;6.094;2023-02-10T16:06:56;8.10;99.90
13848;DHT22;6994;49.752;6.094;2023-02-10T16:09:23;8.00;99.90
13848;DHT22;6994;49.752;6.094;2023-02-10T16:11:50;7.80;99.90
13848;DHT22;6994;49.752;6.094;2023-02-10T16:14:17;7.70;99.90
13848;DHT22;6994;49.752;6.094;2023-02-10T16:16:45;7.50;99.90
13848;DHT22;6994;49.752;6.094;2023-02-10T16:19:12;7.50;99.90
13848;DHT22;6994;49.752;6.094;2023-02-10T16:21:39;7.40;99.90
13848;DHT22;6994;49.752;6.094;2023-02-10T16:24:09;7.20;99.90
13848;DHT22;6994;49.752;6.094;2023-02-10T16:26:33;7.00;99.90
13848;DHT22;6994;49.752;6.094;2023-02-10T16:29:01;6.60;99.90
13848;DHT22;6994;49.752;6.094;2023-02-10T16:31:29;6.50;99.90
13848;DHT22;6994;49.752;6.094;2023-02-10T16:33:57;6.50;99.90
13848;DHT22;6994;49.752;6.094;2023-02-10T16:36:24;6.30;99.90
13848;DHT22;6994;49.752;6.094;2023-02-10T16:38:51;6.20;99.90
13848;DHT22;6994;49.752;6.094;2023-02-10T16:41:18;6.30;99.90
13848;DHT22;6994;49.752;6.094;2023-02-10T16:43:45;6.30;99.90
13848;DHT22;6994;49.752;6.094;2023-02-10T16:46:14;6.40;99.90
13848;DHT22;6994;49.752;6.094;2023-02-10T16:48:40;6.30;99.90
13848;DHT22;6994;49.752;6.094;2023-02-10T16:51:08;6.30;99.90
13848;DHT22;6994;49.752;6.094;2023-02-10T16:53:36;6.10;99.90
13848;DHT22;6994;49.752;6.094;2023-02-10T16:56:04;5.90;99.90
13848;DHT22;6994;49.752;6.094;2023-02-10T16:58:31;5.90;99.90
13848;DHT22;6994;49.752;6.094;2023-02-10T17:00:58;5.80;99.90
13848;DHT22;6994;49.752;6.094;2023-02-10T17:03:25;5.60;99.90
13848;DHT22;6994;49.752;6.094;2023-02-10T17:05:52;5.70;99.90
13848;DHT22;6994;49.752;6.094;2023-02-10T17:08:20;5.70;99.90
13848;DHT22;6994;49.752;6.094;2023-02-10T17:10:47;5.80;99.90
13848;DHT22;6994;49.752;6.094;2023-02-10T17:13:14;5.70;99.90
13848;DHT22;6994;49.752;6.094;2023-02-10T17:15:41;5.60;99.90
13848;DHT22;6994;49.752;6.094;2023-02-10T17:18:09;5.40;99.90
13848;DHT22;6994;49.752;6.094;2023-02-10T17:20:36;5.30;99.90
13848;DHT22;6994;49.752;6.094;2023-02-10T17:23:04;5.20;99.90
13848;DHT22;6994;49.752;6.094;2023-02-10T17:25:31;5.10;99.90
13848;DHT22;6994;49.752;6.094;2023-02-10T17:27:58;5.20;99.90
13848;DHT22;6994;49.752;6.094;2023-02-10T17:30:25;5.20;99.90
13848;DHT22;6994;49.752;6.094;2023-02-10T17:32:53;5.00;99.90
13848;DHT22;6994;49.752;6.094;2023-02-10T17:35:21;4.90;99.90
13848;DHT22;6994;49.752;6.094;2023-02-10T17:37:48;4.50;99.90
13848;DHT22;6994;49.752;6.094;2023-02-10T17:40:16;4.40;99.90
13848;DHT22;6994;49.752;6.094;2023-02-10T17:42:49;4.30;99.90
13848;DHT22;6994;49.752;6.094;2023-02-10T17:45:16;4.20;99.90
13848;DHT22;6994;49.752;6.094;2023-02-10T17:47:43;4.20;99.90
13848;DHT22;6994;49.752;6.094;2023-02-10T17:50:11;4.10;99.90
13848;DHT22;6994;49.752;6.094;2023-02-10T17:52:38;4.00;99.90
13848;DHT22;6994;49.752;6.094;2023-02-10T17:55:05;3.80;99.90